sensor_id;sensor_type;location;lat;lon;timestamp;P1;durP1;ratioP1;P2;durP2;ratioP2
14892;SDS011;7538;53.626;9.906;2024-03-22T00:00:17;20.10;;;13.82;;
14892;SDS011;7538;53.626;9.906;2024-03-22T00:02:42;17.33;;;12.75;;
14892;SDS011;7538;53.626;9.906;2024-03-22T00:05:09;17.45;;;13.10;;
14892;SDS011;7538;53.626;9.906;2024-03-22T00:07:35;21.30;;;14.15;;
14892;SDS011;7538;53.626;9.906;2024-03-22T00:10:03;20.20;;;14.45;;
14892;SDS011;7538;53.626;9.906;2024-03-22T00:12:30;18.27;;;14.07;;
14892;SDS011;7538;53.626;9.906;2024-03-22T00:14:57;20.73;;;14.10;;
14892;SDS011;7538;53.626;9.906;2024-03-22T00:17:24;18.23;;;13.80;;
14892;SDS011;7538;53.626;9.906;2024-03-22T00:19:51;18.55;;;13.85;;
14892;SDS011;7538;53.626;9.906;2024-03-22T00:22:16;19.17;;;14.13;;
14892;SDS011;7538;53.626;9.906;2024-03-22T00:24:43;20.52;;;14.85;;
14892;SDS011;7538;53.626;9.906;2024-03-22T00:27:10;23.50;;;14.82;;
14892;SDS011;7538;53.626;9.906;2024-03-22T00:29:37;22.42;;;13.95;;
14892;SDS011;7538;53.626;9.906;2024-03-22T00:32:03;18.88;;;14.55;;
14892;SDS011;7538;53.626;9.906;2024-03-22T00:34:33;20.50;;;14.43;;
14892;SDS011;7538;53.626;9.906;2024-03-22T00:36:59;22.25;;;14.70;;
14892;SDS011;7538;53.626;9.906;2024-03-22T00:39:26;21.88;;;15.48;;
14892;SDS011;7538;53.626;9.906;2024-03-22T00:41:52;17.30;;;13.82;;
14892;SDS011;7538;53.626;9.906;2024-03-22T00:44:19;19.67;;;15.27;;
14892;SDS011;7538;53.626;9.906;2024-03-22T00:46:44;19.98;;;15.20;;
14892;SDS011;7538;53.626;9.906;2024-03-22T00:49:11;17.67;;;14.52;;
14892;SDS011;7538;53.626;9.906;2024-03-22T00:51:39;19.58;;;15.07;;
14892;SDS011;7538;53.626;9.906;2024-03-22T00:54:08;20.55;;;14.80;;
14892;SDS011;7538;53.626;9.906;2024-03-22T00:56:34;21.20;;;15.20;;
14892;SDS011;7538;53.626;9.906;2024-03-22T00:59:00;18.73;;;14.27;;
14892;SDS011;7538;53.626;9.906;2024-03-22T01:01:26;22.08;;;15.32;;
14892;SDS011;7538;53.626;9.906;2024-03-22T01:03:53;18.15;;;13.90;;
14892;SDS011;7538;53.626;9.906;2024-03-22T01:06:19;20.25;;;13.95;;
14892;SDS011;7538;53.626;9.906;2024-03-22T01:08:51;19.40;;;14.32;;
14892;SDS011;7538;53.626;9.906;2024-03-22T01:11:17;21.67;;;15.48;;
14892;SDS011;7538;53.626;9.906;2024-03-22T01:13:43;20.70;;;14.70;;
14892;SDS011;7538;53.626;9.906;2024-03-22T01:16:09;23.00;;;14.80;;
14892;SDS011;7538;53.626;9.906;2024-03-22T01:18:36;21.35;;;15.75;;
14892;SDS011;7538;53.626;9.906;2024-03-22T01:21:02;19.38;;;14.73;;
14892;SDS011;7538;53.626;9.906;2024-03-22T01:23:30;24.13;;;15.13;;
14892;SDS011;7538;53.626;9.906;2024-03-22T01:25:57;23.83;;;15.57;;
14892;SDS011;7538;53.626;9.906;2024-03-22T01:28:24;18.95;;;14.95;;
14892;SDS011;7538;53.626;9.906;2024-03-22T01:30:49;22.50;;;16.33;;
14892;SDS011;7538;53.626;9.906;2024-03-22T01:33:16;22.50;;;16.40;;
14892;SDS011;7538;53.626;9.906;2024-03-22T01:35:42;19.33;;;15.43;;
14892;SDS011;7538;53.626;9.906;2024-03-22T01:38:08;25.83;;;15.82;;
14892;SDS011;7538;53.626;9.906;2024-03-22T01:40:34;20.33;;;15.73;;
14892;SDS011;7538;53.626;9.906;2024-03-22T01:43:02;22.92;;;16.55;;
14892;SDS011;7538;53.626;9.906;2024-03-22T01:45:31;21.92;;;16.58;;
14892;SDS011;7538;53.626;9.906;2024-03-22T01:47:59;22.83;;;14.90;;
14892;SDS011;7538;53.626;9.906;2024-03-22T01:50:25;20.83;;;16.00;;
14892;SDS011;7538;53.626;9.906;2024-03-22T01:52:53;24.73;;;17.15;;
14892;SDS011;7538;53.626;9.906;2024-03-22T01:55:18;22.02;;;16.35;;
14892;SDS011;7538;53.626;9.906;2024-03-22T01:57:45;24.13;;;16.02;;
14892;SDS011;7538;53.626;9.906;2024-03-22T02:00:13;24.40;;;16.88;;
14892;SDS011;7538;53.626;9.906;2024-03-22T02:02:41;21.65;;;15.95;;
14892;SDS011;7538;53.626;9.906;2024-03-22T02:05:13;23.25;;;16.50;;
14892;SDS011;7538;53.626;9.906;2024-03-22T02:07:41;24.33;;;17.15;;
14892;SDS011;7538;53.626;9.906;2024-03-22T02:10:07;26.13;;;17.92;;
14892;SDS011;7538;53.626;9.906;2024-03-22T02:12:35;24.40;;;17.70;;
14892;SDS011;7538;53.626;9.906;2024-03-22T02:15:02;24.05;;;17.42;;
14892;SDS011;7538;53.626;9.906;2024-03-22T02:17:31;23.00;;;17.60;;
14892;SDS011;7538;53.626;9.906;2024-03-22T02:19:57;27.52;;;18.85;;
14892;SDS011;7538;53.626;9.906;2024-03-22T02:22:24;24.13;;;18.30;;
14892;SDS011;7538;53.626;9.906;2024-03-22T02:24:52;24.17;;;18.45;;
14892;SDS011;7538;53.626;9.906;2024-03-22T02:27:19;24.00;;;17.83;;
14892;SDS011;7538;53.626;9.906;2024-03-22T02:29:45;26.48;;;19.50;;
14892;SDS011;7538;53.626;9.906;2024-03-22T02:32:12;26.42;;;19.67;;
14892;SDS011;7538;53.626;9.906;2024-03-22T02:34:37;25.70;;;18.73;;
14892;SDS011;7538;53.626;9.906;2024-03-22T02:37:04;25.13;;;19.05;;
14892;SDS011;7538;53.626;9.906;2024-03-22T02:39:30;29.08;;;19.73;;
14892;SDS011;7538;53.626;9.906;2024-03-22T02:41:58;27.98;;;20.27;;
14892;SDS011;7538;53.626;9.906;2024-03-22T02:44:24;28.90;;;20.33;;
14892;SDS011;7538;53.626;9.906;2024-03-22T02:46:50;27.98;;;19.98;;
14892;SDS011;7538;53.626;9.906;2024-03-22T02:49:17;29.27;;;20.90;;
14892;SDS011;7538;53.626;9.906;2024-03-22T02:51:43;33.42;;;21.17;;
14892;SDS011;7538;53.626;9.906;2024-03-22T02:54:10;30.05;;;22.35;;
14892;SDS011;7538;53.626;9.906;2024-03-22T02:56:36;31.23;;;22.23;;
14892;SDS011;7538;53.626;9.906;2024-03-22T02:59:04;29.52;;;21.50;;
14892;SDS011;7538;53.626;9.906;2024-03-22T03:01:30;34.47;;;22.55;;
14892;SDS011;7538;53.626;9.906;2024-03-22T03:03:56;33.20;;;23.50;;
14892;SDS011;7538;53.626;9.906;2024-03-22T03:06:22;30.13;;;22.88;;
14892;SDS011;7538;53.626;9.906;2024-03-22T03:08:49;31.90;;;22.70;;
14892;SDS011;7538;53.626;9.906;2024-03-22T03:11:15;34.58;;;24.40;;
14892;SDS011;7538;53.626;9.906;2024-03-22T03:13:42;32.10;;;23.20;;
14892;SDS011;7538;53.626;9.906;2024-03-22T03:16:09;31.67;;;22.75;;
14892;SDS011;7538;53.626;9.906;2024-03-22T03:18:36;33.92;;;24.92;;
14892;SDS011;7538;53.626;9.906;2024-03-22T03:21:01;34.00;;;23.60;;
14892;SDS011;7538;53.626;9.906;2024-03-22T03:23:28;33.40;;;25.08;;
14892;SDS011;7538;53.626;9.906;2024-03-22T03:25:54;35.17;;;25.60;;
14892;SDS011;7538;53.626;9.906;2024-03-22T03:28:21;35.85;;;25.17;;
14892;SDS011;7538;53.626;9.906;2024-03-22T03:30:46;39.10;;;27.02;;
14892;SDS011;7538;53.626;9.906;2024-03-22T03:33:14;38.05;;;26.80;;
14892;SDS011;7538;53.626;9.906;2024-03-22T03:35:40;36.70;;;25.02;;
14892;SDS011;7538;53.626;9.906;2024-03-22T03:38:11;36.72;;;26.48;;
14892;SDS011;7538;53.626;9.906;2024-03-22T03:40:37;37.50;;;27.73;;
14892;SDS011;7538;53.626;9.906;2024-03-22T03:43:04;36.35;;;25.77;;
14892;SDS011;7538;53.626;9.906;2024-03-22T03:45:30;41.72;;;28.02;;
14892;SDS011;7538;53.626;9.906;2024-03-22T03:47:57;37.17;;;26.15;;
14892;SDS011;7538;53.626;9.906;2024-03-22T03:50:24;39.70;;;27.65;;
14892;SDS011;7538;53.626;9.906;2024-03-22T03:52:50;40.03;;;27.42;;
14892;SDS011;7538;53.626;9.906;2024-03-22T03:55:18;40.42;;;28.15;;
14892;SDS011;7538;53.626;9.906;2024-03-22T03:57:45;40.03;;;28.58;;
14892;SDS011;7538;53.626;9.906;2024-03-22T04:00:11;41.65;;;28.85;;
14892;SDS011;7538;53.626;9.906;2024-03-22T04:02:38;42.13;;;28.60;;
14892;SDS011;7538;53.626;9.906;2024-03-22T04:05:04;38.97;;;28.25;;
14892;SDS011;7538;53.626;9.906;2024-03-22T04:07:32;41.00;;;28.00;;
14892;SDS011;7538;53.626;9.906;2024-03-22T04:09:58;39.58;;;29.08;;
14892;SDS011;7538;53.626;9.906;2024-03-22T04:12:26;43.50;;;29.75;;
14892;SDS011;7538;53.626;9.906;2024-03-22T04:14:52;39.55;;;28.67;;
14892;SDS011;7538;53.626;9.906;2024-03-22T04:17:18;42.65;;;30.17;;
14892;SDS011;7538;53.626;9.906;2024-03-22T04:19:44;43.97;;;30.48;;
14892;SDS011;7538;53.626;9.906;2024-03-22T04:22:11;40.80;;;29.80;;
14892;SDS011;7538;53.626;9.906;2024-03-22T04:24:38;40.28;;;29.23;;
14892;SDS011;7538;53.626;9.906;2024-03-22T04:27:05;45.63;;;31.55;;
14892;SDS011;7538;53.626;9.906;2024-03-22T04:29:32;43.13;;;30.48;;
14892;SDS011;7538;53.626;9.906;2024-03-22T04:31:59;43.40;;;30.20;;
14892;SDS011;7538;53.626;9.906;2024-03-22T04:34:24;46.60;;;30.92;;
14892;SDS011;7538;53.626;9.906;2024-03-22T04:36:51;44.25;;;31.17;;
14892;SDS011;7538;53.626;9.906;2024-03-22T04:39:19;44.83;;;32.42;;
14892;SDS011;7538;53.626;9.906;2024-03-22T04:41:47;46.20;;;31.73;;
14892;SDS011;7538;53.626;9.906;2024-03-22T04:44:14;49.50;;;32.75;;
14892;SDS011;7538;53.626;9.906;2024-03-22T04:46:40;45.20;;;32.83;;
14892;SDS011;7538;53.626;9.906;2024-03-22T04:49:07;48.83;;;33.72;;
14892;SDS011;7538;53.626;9.906;2024-03-22T04:51:33;44.60;;;31.80;;
14892;SDS011;7538;53.626;9.906;2024-03-22T04:53:59;50.50;;;32.95;;
14892;SDS011;7538;53.626;9.906;2024-03-22T04:56:26;46.42;;;33.67;;
14892;SDS011;7538;53.626;9.906;2024-03-22T04:58:53;50.40;;;32.35;;
14892;SDS011;7538;53.626;9.906;2024-03-22T05:01:20;46.35;;;32.78;;
14892;SDS011;7538;53.626;9.906;2024-03-22T05:03:48;50.00;;;33.50;;
14892;SDS011;7538;53.626;9.906;2024-03-22T05:06:15;47.60;;;34.40;;
14892;SDS011;7538;53.626;9.906;2024-03-22T05:08:41;48.85;;;33.65;;
14892;SDS011;7538;53.626;9.906;2024-03-22T05:11:07;49.15;;;32.72;;
14892;SDS011;7538;53.626;9.906;2024-03-22T05:13:33;49.72;;;33.63;;
14892;SDS011;7538;53.626;9.906;2024-03-22T05:16:01;49.58;;;33.65;;
14892;SDS011;7538;53.626;9.906;2024-03-22T05:18:27;52.80;;;34.95;;
14892;SDS011;7538;53.626;9.906;2024-03-22T05:20:54;47.88;;;33.88;;
14892;SDS011;7538;53.626;9.906;2024-03-22T05:23:20;49.70;;;34.10;;
14892;SDS011;7538;53.626;9.906;2024-03-22T05:25:46;50.00;;;34.72;;
14892;SDS011;7538;53.626;9.906;2024-03-22T05:28:12;47.97;;;33.20;;
14892;SDS011;7538;53.626;9.906;2024-03-22T05:30:39;48.75;;;33.85;;
14892;SDS011;7538;53.626;9.906;2024-03-22T05:33:06;49.50;;;33.63;;
14892;SDS011;7538;53.626;9.906;2024-03-22T05:35:33;51.03;;;35.90;;
14892;SDS011;7538;53.626;9.906;2024-03-22T05:37:59;55.78;;;35.38;;
14892;SDS011;7538;53.626;9.906;2024-03-22T05:40:25;52.33;;;35.67;;
14892;SDS011;7538;53.626;9.906;2024-03-22T05:42:52;52.20;;;33.67;;
14892;SDS011;7538;53.626;9.906;2024-03-22T05:45:18;51.72;;;36.15;;
14892;SDS011;7538;53.626;9.906;2024-03-22T05:47:45;49.67;;;34.33;;
14892;SDS011;7538;53.626;9.906;2024-03-22T05:50:13;52.22;;;35.92;;
14892;SDS011;7538;53.626;9.906;2024-03-22T05:52:39;55.47;;;36.00;;
14892;SDS011;7538;53.626;9.906;2024-03-22T05:55:05;51.67;;;35.53;;
14892;SDS011;7538;53.626;9.906;2024-03-22T05:57:33;49.65;;;33.25;;
14892;SDS011;7538;53.626;9.906;2024-03-22T05:59:58;55.55;;;36.22;;
14892;SDS011;7538;53.626;9.906;2024-03-22T06:02:25;53.20;;;35.25;;
14892;SDS011;7538;53.626;9.906;2024-03-22T06:04:51;48.85;;;34.22;;
14892;SDS011;7538;53.626;9.906;2024-03-22T06:07:19;50.15;;;34.80;;
14892;SDS011;7538;53.626;9.906;2024-03-22T06:09:45;49.33;;;34.53;;
14892;SDS011;7538;53.626;9.906;2024-03-22T06:12:12;51.58;;;35.03;;
14892;SDS011;7538;53.626;9.906;2024-03-22T06:14:39;52.25;;;36.08;;
14892;SDS011;7538;53.626;9.906;2024-03-22T06:17:06;54.97;;;36.20;;
14892;SDS011;7538;53.626;9.906;2024-03-22T06:19:32;51.50;;;36.08;;
14892;SDS011;7538;53.626;9.906;2024-03-22T06:21:58;52.65;;;35.58;;
14892;SDS011;7538;53.626;9.906;2024-03-22T06:24:25;54.78;;;35.85;;
14892;SDS011;7538;53.626;9.906;2024-03-22T06:26:52;52.65;;;35.17;;
14892;SDS011;7538;53.626;9.906;2024-03-22T06:29:19;53.40;;;36.95;;
14892;SDS011;7538;53.626;9.906;2024-03-22T06:31:45;52.75;;;37.17;;
14892;SDS011;7538;53.626;9.906;2024-03-22T06:34:12;53.83;;;36.70;;
14892;SDS011;7538;53.626;9.906;2024-03-22T06:36:38;50.13;;;35.20;;
14892;SDS011;7538;53.626;9.906;2024-03-22T06:39:05;54.10;;;36.15;;
14892;SDS011;7538;53.626;9.906;2024-03-22T06:41:34;52.40;;;36.30;;
14892;SDS011;7538;53.626;9.906;2024-03-22T06:44:00;53.63;;;36.38;;
14892;SDS011;7538;53.626;9.906;2024-03-22T06:46:26;51.38;;;36.25;;
14892;SDS011;7538;53.626;9.906;2024-03-22T06:48:54;51.33;;;34.85;;
14892;SDS011;7538;53.626;9.906;2024-03-22T06:51:19;50.15;;;34.53;;
14892;SDS011;7538;53.626;9.906;2024-03-22T06:53:46;45.90;;;33.85;;
14892;SDS011;7538;53.626;9.906;2024-03-22T06:56:13;51.47;;;36.28;;
14892;SDS011;7538;53.626;9.906;2024-03-22T06:58:41;52.42;;;35.45;;
14892;SDS011;7538;53.626;9.906;2024-03-22T07:01:07;51.08;;;35.58;;
14892;SDS011;7538;53.626;9.906;2024-03-22T07:03:34;51.92;;;35.88;;
14892;SDS011;7538;53.626;9.906;2024-03-22T07:05:59;51.85;;;35.42;;
14892;SDS011;7538;53.626;9.906;2024-03-22T07:08:26;46.83;;;33.72;;
14892;SDS011;7538;53.626;9.906;2024-03-22T07:10:53;48.60;;;33.33;;
14892;SDS011;7538;53.626;9.906;2024-03-22T07:13:20;48.78;;;35.20;;
14892;SDS011;7538;53.626;9.906;2024-03-22T07:15:47;47.90;;;33.50;;
14892;SDS011;7538;53.626;9.906;2024-03-22T07:18:14;48.00;;;34.17;;
14892;SDS011;7538;53.626;9.906;2024-03-22T07:20:40;49.00;;;33.35;;
14892;SDS011;7538;53.626;9.906;2024-03-22T07:23:07;51.45;;;33.92;;
14892;SDS011;7538;53.626;9.906;2024-03-22T07:25:33;50.60;;;35.35;;
14892;SDS011;7538;53.626;9.906;2024-03-22T07:28:00;49.78;;;35.50;;
14892;SDS011;7538;53.626;9.906;2024-03-22T07:30:25;51.72;;;36.65;;
14892;SDS011;7538;53.626;9.906;2024-03-22T07:32:54;48.80;;;35.03;;
14892;SDS011;7538;53.626;9.906;2024-03-22T07:35:19;48.95;;;33.88;;
14892;SDS011;7538;53.626;9.906;2024-03-22T07:37:46;49.08;;;35.20;;
14892;SDS011;7538;53.626;9.906;2024-03-22T07:40:12;50.33;;;35.25;;
14892;SDS011;7538;53.626;9.906;2024-03-22T07:42:39;47.20;;;33.53;;
14892;SDS011;7538;53.626;9.906;2024-03-22T07:45:05;51.67;;;36.95;;
14892;SDS011;7538;53.626;9.906;2024-03-22T07:47:32;53.28;;;36.28;;
14892;SDS011;7538;53.626;9.906;2024-03-22T07:50:00;50.60;;;37.03;;
14892;SDS011;7538;53.626;9.906;2024-03-22T07:52:27;54.55;;;37.47;;
14892;SDS011;7538;53.626;9.906;2024-03-22T07:54:52;50.35;;;35.85;;
14892;SDS011;7538;53.626;9.906;2024-03-22T07:57:19;53.15;;;38.03;;
14892;SDS011;7538;53.626;9.906;2024-03-22T07:59:45;54.70;;;37.10;;
14892;SDS011;7538;53.626;9.906;2024-03-22T08:02:12;52.00;;;35.10;;
14892;SDS011;7538;53.626;9.906;2024-03-22T08:04:38;54.83;;;37.75;;
14892;SDS011;7538;53.626;9.906;2024-03-22T08:07:06;50.47;;;36.80;;
14892;SDS011;7538;53.626;9.906;2024-03-22T08:09:32;51.47;;;36.63;;
14892;SDS011;7538;53.626;9.906;2024-03-22T08:11:58;55.20;;;38.83;;
14892;SDS011;7538;53.626;9.906;2024-03-22T08:14:24;50.50;;;35.78;;
14892;SDS011;7538;53.626;9.906;2024-03-22T08:16:51;55.40;;;37.80;;
14892;SDS011;7538;53.626;9.906;2024-03-22T08:19:17;51.25;;;36.45;;
14892;SDS011;7538;53.626;9.906;2024-03-22T08:21:43;57.38;;;38.80;;
14892;SDS011;7538;53.626;9.906;2024-03-22T08:24:11;52.45;;;38.00;;
14892;SDS011;7538;53.626;9.906;2024-03-22T08:26:37;56.10;;;37.80;;
14892;SDS011;7538;53.626;9.906;2024-03-22T08:29:03;55.47;;;39.15;;
14892;SDS011;7538;53.626;9.906;2024-03-22T08:31:30;58.08;;;38.30;;
14892;SDS011;7538;53.626;9.906;2024-03-22T08:33:56;56.30;;;40.35;;
14892;SDS011;7538;53.626;9.906;2024-03-22T08:36:22;58.15;;;38.78;;
14892;SDS011;7538;53.626;9.906;2024-03-22T08:38:48;57.13;;;36.92;;
14892;SDS011;7538;53.626;9.906;2024-03-22T08:41:16;53.67;;;37.13;;
14892;SDS011;7538;53.626;9.906;2024-03-22T08:43:42;55.53;;;38.95;;
14892;SDS011;7538;53.626;9.906;2024-03-22T08:46:10;60.30;;;40.00;;
14892;SDS011;7538;53.626;9.906;2024-03-22T08:48:36;55.15;;;38.83;;
14892;SDS011;7538;53.626;9.906;2024-03-22T08:51:03;54.58;;;38.38;;
14892;SDS011;7538;53.626;9.906;2024-03-22T08:53:28;55.75;;;38.90;;
14892;SDS011;7538;53.626;9.906;2024-03-22T08:55:55;56.47;;;38.53;;
14892;SDS011;7538;53.626;9.906;2024-03-22T08:58:22;56.05;;;39.40;;
14892;SDS011;7538;53.626;9.906;2024-03-22T09:00:49;60.53;;;40.22;;
14892;SDS011;7538;53.626;9.906;2024-03-22T09:03:15;56.42;;;38.13;;
14892;SDS011;7538;53.626;9.906;2024-03-22T09:05:43;56.75;;;39.13;;
14892;SDS011;7538;53.626;9.906;2024-03-22T09:08:09;57.45;;;40.17;;
14892;SDS011;7538;53.626;9.906;2024-03-22T09:10:35;57.70;;;39.75;;
14892;SDS011;7538;53.626;9.906;2024-03-22T09:13:01;58.75;;;38.25;;
14892;SDS011;7538;53.626;9.906;2024-03-22T09:15:29;56.72;;;40.03;;
14892;SDS011;7538;53.626;9.906;2024-03-22T09:17:56;57.42;;;39.50;;
14892;SDS011;7538;53.626;9.906;2024-03-22T09:20:22;53.55;;;38.72;;
14892;SDS011;7538;53.626;9.906;2024-03-22T09:22:48;58.67;;;38.63;;
14892;SDS011;7538;53.626;9.906;2024-03-22T09:25:15;60.15;;;40.08;;
14892;SDS011;7538;53.626;9.906;2024-03-22T09:27:42;55.13;;;37.53;;
14892;SDS011;7538;53.626;9.906;2024-03-22T09:30:09;57.60;;;39.88;;
14892;SDS011;7538;53.626;9.906;2024-03-22T09:32:37;58.65;;;39.05;;
14892;SDS011;7538;53.626;9.906;2024-03-22T09:35:03;57.42;;;38.67;;
14892;SDS011;7538;53.626;9.906;2024-03-22T09:37:31;58.25;;;38.28;;
14892;SDS011;7538;53.626;9.906;2024-03-22T09:39:57;58.08;;;38.45;;
14892;SDS011;7538;53.626;9.906;2024-03-22T09:42:24;58.47;;;38.92;;
14892;SDS011;7538;53.626;9.906;2024-03-22T09:44:53;57.45;;;36.72;;
14892;SDS011;7538;53.626;9.906;2024-03-22T09:47:20;52.35;;;35.33;;
14892;SDS011;7538;53.626;9.906;2024-03-22T09:49:47;50.22;;;34.97;;
14892;SDS011;7538;53.626;9.906;2024-03-22T09:52:15;51.42;;;34.08;;
14892;SDS011;7538;53.626;9.906;2024-03-22T09:54:44;53.88;;;35.72;;
14892;SDS011;7538;53.626;9.906;2024-03-22T09:57:13;51.22;;;33.83;;
14892;SDS011;7538;53.626;9.906;2024-03-22T09:59:40;49.33;;;33.33;;
14892;SDS011;7538;53.626;9.906;2024-03-22T10:02:07;48.53;;;33.25;;
14892;SDS011;7538;53.626;9.906;2024-03-22T10:04:36;47.38;;;32.38;;
14892;SDS011;7538;53.626;9.906;2024-03-22T10:07:04;45.78;;;31.45;;
14892;SDS011;7538;53.626;9.906;2024-03-22T10:09:30;41.63;;;29.13;;
14892;SDS011;7538;53.626;9.906;2024-03-22T10:11:57;41.55;;;29.05;;
14892;SDS011;7538;53.626;9.906;2024-03-22T10:14:23;45.30;;;30.38;;
14892;SDS011;7538;53.626;9.906;2024-03-22T10:16:51;45.65;;;30.25;;
14892;SDS011;7538;53.626;9.906;2024-03-22T10:19:18;38.00;;;28.25;;
14892;SDS011;7538;53.626;9.906;2024-03-22T10:21:45;34.13;;;26.27;;
14892;SDS011;7538;53.626;9.906;2024-03-22T10:24:13;36.33;;;26.50;;
14892;SDS011;7538;53.626;9.906;2024-03-22T10:26:40;34.85;;;25.30;;
14892;SDS011;7538;53.626;9.906;2024-03-22T10:29:06;32.85;;;23.98;;
14892;SDS011;7538;53.626;9.906;2024-03-22T10:31:34;33.72;;;24.20;;
14892;SDS011;7538;53.626;9.906;2024-03-22T10:34:00;29.60;;;22.67;;
14892;SDS011;7538;53.626;9.906;2024-03-22T10:39:39;29.33;;;21.20;;
14892;SDS011;7538;53.626;9.906;2024-03-22T10:42:07;25.70;;;19.33;;
14892;SDS011;7538;53.626;9.906;2024-03-22T10:44:33;25.80;;;19.40;;
14892;SDS011;7538;53.626;9.906;2024-03-22T10:47:00;22.85;;;17.08;;
14892;SDS011;7538;53.626;9.906;2024-03-22T10:49:30;23.05;;;17.38;;
14892;SDS011;7538;53.626;9.906;2024-03-22T10:52:01;26.30;;;18.50;;
14892;SDS011;7538;53.626;9.906;2024-03-22T10:54:30;23.27;;;17.33;;
14892;SDS011;7538;53.626;9.906;2024-03-22T10:57:00;23.80;;;16.75;;
14892;SDS011;7538;53.626;9.906;2024-03-22T10:59:32;21.63;;;15.27;;
14892;SDS011;7538;53.626;9.906;2024-03-22T11:02:02;19.05;;;14.95;;
14892;SDS011;7538;53.626;9.906;2024-03-22T11:04:29;18.45;;;14.70;;
14892;SDS011;7538;53.626;9.906;2024-03-22T11:06:56;18.17;;;13.85;;
14892;SDS011;7538;53.626;9.906;2024-03-22T11:09:22;17.10;;;14.48;;
14892;SDS011;7538;53.626;9.906;2024-03-22T11:11:51;19.33;;;14.85;;
14892;SDS011;7538;53.626;9.906;2024-03-22T11:14:18;16.70;;;13.98;;
14892;SDS011;7538;53.626;9.906;2024-03-22T11:16:46;16.13;;;12.70;;
14892;SDS011;7538;53.626;9.906;2024-03-22T11:19:12;15.02;;;11.80;;
14892;SDS011;7538;53.626;9.906;2024-03-22T11:21:39;15.18;;;11.07;;
14892;SDS011;7538;53.626;9.906;2024-03-22T11:24:04;14.30;;;11.18;;
14892;SDS011;7538;53.626;9.906;2024-03-22T11:26:32;12.88;;;10.40;;
14892;SDS011;7538;53.626;9.906;2024-03-22T11:28:58;13.80;;;10.63;;
14892;SDS011;7538;53.626;9.906;2024-03-22T11:31:26;12.50;;;10.15;;
14892;SDS011;7538;53.626;9.906;2024-03-22T11:33:52;13.32;;;10.32;;
14892;SDS011;7538;53.626;9.906;2024-03-22T11:36:19;11.70;;;9.65;;
14892;SDS011;7538;53.626;9.906;2024-03-22T11:38:45;11.63;;;9.38;;
14892;SDS011;7538;53.626;9.906;2024-03-22T11:41:14;11.45;;;9.70;;
14892;SDS011;7538;53.626;9.906;2024-03-22T11:43:42;12.02;;;10.02;;
14892;SDS011;7538;53.626;9.906;2024-03-22T11:46:09;11.82;;;10.10;;
14892;SDS011;7538;53.626;9.906;2024-03-22T11:48:39;12.20;;;9.63;;
14892;SDS011;7538;53.626;9.906;2024-03-22T11:51:06;12.85;;;9.15;;
14892;SDS011;7538;53.626;9.906;2024-03-22T11:53:32;11.27;;;9.68;;
14892;SDS011;7538;53.626;9.906;2024-03-22T11:55:59;10.98;;;9.65;;
14892;SDS011;7538;53.626;9.906;2024-03-22T11:58:26;11.55;;;9.43;;
14892;SDS011;7538;53.626;9.906;2024-03-22T12:00:54;12.10;;;9.32;;
14892;SDS011;7538;53.626;9.906;2024-03-22T12:03:20;9.15;;;8.25;;
14892;SDS011;7538;53.626;9.906;2024-03-22T12:05:49;11.05;;;8.70;;
14892;SDS011;7538;53.626;9.906;2024-03-22T12:08:16;10.38;;;8.15;;
14892;SDS011;7538;53.626;9.906;2024-03-22T12:10:42;9.00;;;8.07;;
14892;SDS011;7538;53.626;9.906;2024-03-22T12:13:08;10.00;;;7.55;;
14892;SDS011;7538;53.626;9.906;2024-03-22T12:15:35;8.68;;;7.72;;
14892;SDS011;7538;53.626;9.906;2024-03-22T12:18:02;9.73;;;7.45;;
14892;SDS011;7538;53.626;9.906;2024-03-22T12:20:28;8.65;;;7.40;;
14892;SDS011;7538;53.626;9.906;2024-03-22T12:22:56;7.80;;;7.00;;
14892;SDS011;7538;53.626;9.906;2024-03-22T12:25:22;7.15;;;6.45;;
14892;SDS011;7538;53.626;9.906;2024-03-22T12:27:49;6.97;;;5.97;;
14892;SDS011;7538;53.626;9.906;2024-03-22T12:30:16;6.47;;;5.88;;
14892;SDS011;7538;53.626;9.906;2024-03-22T12:32:42;8.02;;;7.22;;
14892;SDS011;7538;53.626;9.906;2024-03-22T12:35:08;8.25;;;7.05;;
14892;SDS011;7538;53.626;9.906;2024-03-22T12:37:34;7.38;;;6.68;;
14892;SDS011;7538;53.626;9.906;2024-03-22T12:40:02;7.55;;;6.82;;
14892;SDS011;7538;53.626;9.906;2024-03-22T12:42:28;6.13;;;5.00;;
14892;SDS011;7538;53.626;9.906;2024-03-22T12:44:55;5.13;;;4.28;;
14892;SDS011;7538;53.626;9.906;2024-03-22T12:47:21;4.10;;;3.70;;
14892;SDS011;7538;53.626;9.906;2024-03-22T12:49:48;3.22;;;2.92;;
14892;SDS011;7538;53.626;9.906;2024-03-22T12:52:13;3.55;;;3.25;;
14892;SDS011;7538;53.626;9.906;2024-03-22T12:54:40;3.03;;;2.72;;
14892;SDS011;7538;53.626;9.906;2024-03-22T12:57:07;3.42;;;3.08;;
14892;SDS011;7538;53.626;9.906;2024-03-22T12:59:35;3.05;;;2.80;;
14892;SDS011;7538;53.626;9.906;2024-03-22T13:02:00;2.90;;;2.55;;
14892;SDS011;7538;53.626;9.906;2024-03-22T13:04:27;2.53;;;2.33;;
14892;SDS011;7538;53.626;9.906;2024-03-22T13:06:53;2.58;;;2.38;;
14892;SDS011;7538;53.626;9.906;2024-03-22T13:09:20;2.10;;;1.90;;
14892;SDS011;7538;53.626;9.906;2024-03-22T13:11:46;2.40;;;2.20;;
14892;SDS011;7538;53.626;9.906;2024-03-22T13:14:15;2.10;;;1.90;;
14892;SDS011;7538;53.626;9.906;2024-03-22T13:16:41;2.25;;;2.05;;
14892;SDS011;7538;53.626;9.906;2024-03-22T13:19:07;2.30;;;2.10;;
14892;SDS011;7538;53.626;9.906;2024-03-22T13:21:37;3.17;;;2.22;;
14892;SDS011;7538;53.626;9.906;2024-03-22T13:24:04;2.40;;;2.20;;
14892;SDS011;7538;53.626;9.906;2024-03-22T13:26:31;2.47;;;2.28;;
14892;SDS011;7538;53.626;9.906;2024-03-22T13:28:56;2.30;;;2.10;;
14892;SDS011;7538;53.626;9.906;2024-03-22T13:31:24;2.80;;;2.22;;
14892;SDS011;7538;53.626;9.906;2024-03-22T13:33:50;2.67;;;2.40;;
14892;SDS011;7538;53.626;9.906;2024-03-22T13:36:17;2.67;;;2.40;;
14892;SDS011;7538;53.626;9.906;2024-03-22T13:38:43;3.05;;;2.30;;
14892;SDS011;7538;53.626;9.906;2024-03-22T13:41:10;2.42;;;2.17;;
14892;SDS011;7538;53.626;9.906;2024-03-22T13:43:36;2.10;;;1.90;;
14892;SDS011;7538;53.626;9.906;2024-03-22T13:46:05;1.60;;;1.50;;
14892;SDS011;7538;53.626;9.906;2024-03-22T13:48:32;1.90;;;1.80;;
14892;SDS011;7538;53.626;9.906;2024-03-22T13:50:58;1.83;;;1.70;;
14892;SDS011;7538;53.626;9.906;2024-03-22T13:53:24;2.20;;;1.52;;
14892;SDS011;7538;53.626;9.906;2024-03-22T13:55:51;1.40;;;1.30;;
14892;SDS011;7538;53.626;9.906;2024-03-22T13:58:18;1.38;;;1.27;;
14892;SDS011;7538;53.626;9.906;2024-03-22T14:00:44;1.13;;;1.02;;
14892;SDS011;7538;53.626;9.906;2024-03-22T14:03:10;1.42;;;1.30;;
14892;SDS011;7538;53.626;9.906;2024-03-22T14:05:38;1.27;;;1.00;;
14892;SDS011;7538;53.626;9.906;2024-03-22T14:08:04;1.40;;;1.27;;
14892;SDS011;7538;53.626;9.906;2024-03-22T14:10:31;1.20;;;1.10;;
14892;SDS011;7538;53.626;9.906;2024-03-22T14:12:57;1.83;;;1.30;;
14892;SDS011;7538;53.626;9.906;2024-03-22T14:15:24;1.23;;;1.10;;
14892;SDS011;7538;53.626;9.906;2024-03-22T14:17:51;1.88;;;1.10;;
14892;SDS011;7538;53.626;9.906;2024-03-22T14:20:18;1.40;;;1.00;;
14892;SDS011;7538;53.626;9.906;2024-03-22T14:22:46;3.65;;;1.80;;
14892;SDS011;7538;53.626;9.906;2024-03-22T14:25:13;4.28;;;1.83;;
14892;SDS011;7538;53.626;9.906;2024-03-22T14:27:39;5.57;;;2.38;;
14892;SDS011;7538;53.626;9.906;2024-03-22T14:30:07;6.10;;;2.53;;
14892;SDS011;7538;53.626;9.906;2024-03-22T14:32:35;5.28;;;2.50;;
14892;SDS011;7538;53.626;9.906;2024-03-22T14:35:02;5.53;;;2.47;;
14892;SDS011;7538;53.626;9.906;2024-03-22T14:37:28;5.15;;;2.30;;
14892;SDS011;7538;53.626;9.906;2024-03-22T14:39:56;6.32;;;2.70;;